sensor_id;sensor_type;location;lat;lon;timestamp;P1;durP1;ratioP1;P2;durP2;ratioP2
72590;SDS011;60625;51.212;5.952;2023-06-14T00:02:56;9.90;;;5.70;;
72590;SDS011;60625;51.212;5.952;2023-06-14T00:07:57;8.30;;;5.30;;
72590;SDS011;60625;51.212;5.952;2023-06-14T00:13:03;9.40;;;5.90;;
72590;SDS011;60625;51.212;5.952;2023-06-14T00:18:05;9.60;;;5.90;;
72590;SDS011;60625;51.212;5.952;2023-06-14T00:23:06;10.30;;;5.60;;
72590;SDS011;60625;51.212;5.952;2023-06-14T00:28:07;7.90;;;5.40;;
72590;SDS011;60625;51.212;5.952;2023-06-14T00:33:09;10.80;;;5.60;;
72590;SDS011;60625;51.212;5.952;2023-06-14T00:38:10;12.50;;;6.20;;
72590;SDS011;60625;51.212;5.952;2023-06-14T00:43:10;8.00;;;5.50;;
72590;SDS011;60625;51.212;5.952;2023-06-14T00:48:11;7.40;;;4.80;;
72590;SDS011;60625;51.212;5.952;2023-06-14T00:53:12;10.80;;;5.10;;
72590;SDS011;60625;51.212;5.952;2023-06-14T00:58:15;7.80;;;5.20;;
72590;SDS011;60625;51.212;5.952;2023-06-14T01:03:17;9.90;;;5.80;;
72590;SDS011;60625;51.212;5.952;2023-06-14T01:08:28;12.20;;;6.00;;
72590;SDS011;60625;51.212;5.952;2023-06-14T01:13:39;7.60;;;5.40;;
72590;SDS011;60625;51.212;5.952;2023-06-14T01:18:43;9.20;;;6.20;;
72590;SDS011;60625;51.212;5.952;2023-06-14T01:23:48;10.10;;;6.10;;
72590;SDS011;60625;51.212;5.952;2023-06-14T01:28:54;9.50;;;6.00;;
72590;SDS011;60625;51.212;5.952;2023-06-14T01:33:58;9.50;;;5.60;;
72590;SDS011;60625;51.212;5.952;2023-06-14T01:38:59;11.00;;;5.80;;
72590;SDS011;60625;51.212;5.952;2023-06-14T01:44:02;9.30;;;5.90;;
72590;SDS011;60625;51.212;5.952;2023-06-14T01:49:04;10.20;;;6.20;;
72590;SDS011;60625;51.212;5.952;2023-06-14T01:54:04;9.60;;;5.70;;
72590;SDS011;60625;51.212;5.952;2023-06-14T01:59:06;9.70;;;6.10;;
72590;SDS011;60625;51.212;5.952;2023-06-14T02:04:07;11.30;;;5.70;;
72590;SDS011;60625;51.212;5.952;2023-06-14T02:09:08;11.20;;;5.80;;
72590;SDS011;60625;51.212;5.952;2023-06-14T02:14:08;10.80;;;5.60;;
72590;SDS011;60625;51.212;5.952;2023-06-14T02:19:11;11.20;;;6.80;;
72590;SDS011;60625;51.212;5.952;2023-06-14T02:24:12;8.50;;;5.60;;
72590;SDS011;60625;51.212;5.952;2023-06-14T02:29:13;9.50;;;5.60;;
72590;SDS011;60625;51.212;5.952;2023-06-14T02:34:15;8.20;;;5.20;;
72590;SDS011;60625;51.212;5.952;2023-06-14T02:39:21;11.90;;;5.40;;
72590;SDS011;60625;51.212;5.952;2023-06-14T02:44:26;9.30;;;5.80;;
72590;SDS011;60625;51.212;5.952;2023-06-14T02:49:27;11.00;;;5.60;;
72590;SDS011;60625;51.212;5.952;2023-06-14T02:54:29;8.50;;;5.50;;
72590;SDS011;60625;51.212;5.952;2023-06-14T02:59:29;9.50;;;5.70;;
72590;SDS011;60625;51.212;5.952;2023-06-14T03:04:30;8.70;;;5.40;;
72590;SDS011;60625;51.212;5.952;2023-06-14T03:09:37;10.80;;;5.70;;
72590;SDS011;60625;51.212;5.952;2023-06-14T03:14:40;9.40;;;5.70;;
72590;SDS011;60625;51.212;5.952;2023-06-14T03:19:43;10.80;;;5.30;;
72590;SDS011;60625;51.212;5.952;2023-06-14T03:24:44;9.30;;;5.10;;
72590;SDS011;60625;51.212;5.952;2023-06-14T03:29:47;12.50;;;5.80;;
72590;SDS011;60625;51.212;5.952;2023-06-14T03:34:48;9.20;;;5.60;;
72590;SDS011;60625;51.212;5.952;2023-06-14T03:39:54;8.60;;;5.20;;
72590;SDS011;60625;51.212;5.952;2023-06-14T03:44:57;9.70;;;5.60;;
72590;SDS011;60625;51.212;5.952;2023-06-14T03:49:57;11.30;;;5.90;;
72590;SDS011;60625;51.212;5.952;2023-06-14T03:54:58;9.20;;;5.20;;
72590;SDS011;60625;51.212;5.952;2023-06-14T04:00:01;8.90;;;5.20;;
72590;SDS011;60625;51.212;5.952;2023-06-14T04:05:15;12.40;;;6.10;;
72590;SDS011;60625;51.212;5.952;2023-06-14T04:10:20;12.40;;;5.40;;
72590;SDS011;60625;51.212;5.952;2023-06-14T04:15:21;12.20;;;5.30;;
72590;SDS011;60625;51.212;5.952;2023-06-14T04:20:21;9.80;;;5.60;;
72590;SDS011;60625;51.212;5.952;2023-06-14T04:25:22;9.50;;;5.40;;
72590;SDS011;60625;51.212;5.952;2023-06-14T04:30:24;8.60;;;5.00;;
72590;SDS011;60625;51.212;5.952;2023-06-14T04:35:26;10.10;;;5.40;;
72590;SDS011;60625;51.212;5.952;2023-06-14T04:40:31;11.50;;;5.40;;
72590;SDS011;60625;51.212;5.952;2023-06-14T04:45:34;8.80;;;5.30;;
72590;SDS011;60625;51.212;5.952;2023-06-14T04:50:37;13.50;;;6.30;;
72590;SDS011;60625;51.212;5.952;2023-06-14T04:55:41;9.30;;;5.40;;
72590;SDS011;60625;51.212;5.952;2023-06-14T05:00:46;11.10;;;6.20;;
72590;SDS011;60625;51.212;5.952;2023-06-14T05:05:48;12.30;;;6.20;;
72590;SDS011;60625;51.212;5.952;2023-06-14T05:10:50;11.80;;;6.00;;
72590;SDS011;60625;51.212;5.952;2023-06-14T05:15:54;15.80;;;6.70;;
72590;SDS011;60625;51.212;5.952;2023-06-14T05:20:55;14.60;;;5.80;;
72590;SDS011;60625;51.212;5.952;2023-06-14T05:25:55;10.00;;;5.60;;
72590;SDS011;60625;51.212;5.952;2023-06-14T05:30:57;11.20;;;5.90;;
72590;SDS011;60625;51.212;5.952;2023-06-14T05:35:58;11.60;;;6.20;;
72590;SDS011;60625;51.212;5.952;2023-06-14T05:40:59;13.20;;;5.50;;
72590;SDS011;60625;51.212;5.952;2023-06-14T05:46:00;12.70;;;5.50;;
72590;SDS011;60625;51.212;5.952;2023-06-14T05:51:00;9.50;;;5.20;;
72590;SDS011;60625;51.212;5.952;2023-06-14T05:56:01;14.00;;;5.40;;
72590;SDS011;60625;51.212;5.952;2023-06-14T06:01:06;13.40;;;5.60;;
72590;SDS011;60625;51.212;5.952;2023-06-14T06:06:07;10.90;;;5.60;;
72590;SDS011;60625;51.212;5.952;2023-06-14T06:11:08;14.60;;;5.40;;
72590;SDS011;60625;51.212;5.952;2023-06-14T06:16:09;13.00;;;5.30;;
72590;SDS011;60625;51.212;5.952;2023-06-14T06:21:10;11.40;;;5.20;;
72590;SDS011;60625;51.212;5.952;2023-06-14T06:26:11;11.10;;;5.10;;
72590;SDS011;60625;51.212;5.952;2023-06-14T06:31:11;9.20;;;4.70;;
72590;SDS011;60625;51.212;5.952;2023-06-14T06:36:15;9.90;;;4.70;;
72590;SDS011;60625;51.212;5.952;2023-06-14T06:41:15;8.40;;;4.10;;
72590;SDS011;60625;51.212;5.952;2023-06-14T06:46:16;8.60;;;4.60;;
72590;SDS011;60625;51.212;5.952;2023-06-14T06:51:19;7.60;;;4.10;;
72590;SDS011;60625;51.212;5.952;2023-06-14T06:56:20;17.20;;;4.20;;
72590;SDS011;60625;51.212;5.952;2023-06-14T07:01:23;11.60;;;4.40;;
72590;SDS011;60625;51.212;5.952;2023-06-14T07:06:24;15.70;;;4.40;;
72590;SDS011;60625;51.212;5.952;2023-06-14T07:11:27;9.40;;;3.80;;
72590;SDS011;60625;51.212;5.952;2023-06-14T07:16:28;7.60;;;3.50;;
72590;SDS011;60625;51.212;5.952;2023-06-14T07:21:28;15.50;;;4.00;;
72590;SDS011;60625;51.212;5.952;2023-06-14T07:26:29;8.80;;;4.10;;
72590;SDS011;60625;51.212;5.952;2023-06-14T07:31:30;9.70;;;4.50;;
72590;SDS011;60625;51.212;5.952;2023-06-14T07:36:31;12.80;;;4.00;;
72590;SDS011;60625;51.212;5.952;2023-06-14T07:41:31;8.70;;;3.80;;
72590;SDS011;60625;51.212;5.952;2023-06-14T07:46:33;6.60;;;3.50;;
72590;SDS011;60625;51.212;5.952;2023-06-14T07:51:34;6.80;;;3.90;;
72590;SDS011;60625;51.212;5.952;2023-06-14T07:56:35;10.00;;;3.40;;
72590;SDS011;60625;51.212;5.952;2023-06-14T08:01:36;9.00;;;3.90;;
72590;SDS011;60625;51.212;5.952;2023-06-14T08:06:36;9.10;;;3.20;;
72590;SDS011;60625;51.212;5.952;2023-06-14T08:11:38;10.70;;;3.10;;
72590;SDS011;60625;51.212;5.952;2023-06-14T08:16:38;8.30;;;3.40;;
72590;SDS011;60625;51.212;5.952;2023-06-14T08:21:38;6.40;;;2.50;;
72590;SDS011;60625;51.212;5.952;2023-06-14T08:26:40;9.50;;;2.70;;
72590;SDS011;60625;51.212;5.952;2023-06-14T08:31:41;6.90;;;2.90;;
72590;SDS011;60625;51.212;5.952;2023-06-14T08:36:42;9.00;;;2.90;;
72590;SDS011;60625;51.212;5.952;2023-06-14T08:41:45;7.70;;;2.70;;
72590;SDS011;60625;51.212;5.952;2023-06-14T08:46:49;5.30;;;2.90;;
72590;SDS011;60625;51.212;5.952;2023-06-14T08:52:00;5.60;;;2.10;;
72590;SDS011;60625;51.212;5.952;2023-06-14T08:57:02;4.10;;;1.80;;
72590;SDS011;60625;51.212;5.952;2023-06-14T09:02:06;5.90;;;2.00;;
72590;SDS011;60625;51.212;5.952;2023-06-14T09:07:07;6.40;;;2.10;;
72590;SDS011;60625;51.212;5.952;2023-06-14T09:12:09;5.80;;;1.70;;
72590;SDS011;60625;51.212;5.952;2023-06-14T09:17:13;4.70;;;1.90;;
72590;SDS011;60625;51.212;5.952;2023-06-14T09:22:16;4.00;;;1.60;;
72590;SDS011;60625;51.212;5.952;2023-06-14T09:27:17;4.40;;;1.40;;
72590;SDS011;60625;51.212;5.952;2023-06-14T09:32:18;5.40;;;1.70;;
72590;SDS011;60625;51.212;5.952;2023-06-14T09:37:29;6.00;;;1.90;;
72590;SDS011;60625;51.212;5.952;2023-06-14T09:42:30;4.40;;;1.80;;
72590;SDS011;60625;51.212;5.952;2023-06-14T09:47:31;4.80;;;1.60;;
72590;SDS011;60625;51.212;5.952;2023-06-14T09:52:32;5.10;;;1.60;;
72590;SDS011;60625;51.212;5.952;2023-06-14T09:57:33;4.90;;;2.20;;
72590;SDS011;60625;51.212;5.952;2023-06-14T10:02:36;6.00;;;1.90;;
72590;SDS011;60625;51.212;5.952;2023-06-14T10:12:45;5.10;;;2.10;;
72590;SDS011;60625;51.212;5.952;2023-06-14T10:17:54;5.70;;;1.90;;
72590;SDS011;60625;51.212;5.952;2023-06-14T10:23:19;5.10;;;2.60;;
72590;SDS011;60625;51.212;5.952;2023-06-14T10:28:22;4.60;;;2.40;;
72590;SDS011;60625;51.212;5.952;2023-06-14T10:33:28;6.50;;;2.20;;
72590;SDS011;60625;51.212;5.952;2023-06-14T10:38:30;5.40;;;2.00;;
72590;SDS011;60625;51.212;5.952;2023-06-14T10:43:32;6.10;;;2.10;;
72590;SDS011;60625;51.212;5.952;2023-06-14T10:48:33;5.80;;;2.20;;
72590;SDS011;60625;51.212;5.952;2023-06-14T10:53:42;6.30;;;2.20;;
72590;SDS011;60625;51.212;5.952;2023-06-14T10:58:43;5.30;;;1.90;;
72590;SDS011;60625;51.212;5.952;2023-06-14T11:03:53;5.60;;;1.90;;
72590;SDS011;60625;51.212;5.952;2023-06-14T11:14:39;4.50;;;2.10;;
72590;SDS011;60625;51.212;5.952;2023-06-14T11:19:40;3.90;;;2.10;;
72590;SDS011;60625;51.212;5.952;2023-06-14T11:24:40;5.90;;;2.10;;
72590;SDS011;60625;51.212;5.952;2023-06-14T11:29:48;4.40;;;1.80;;
72590;SDS011;60625;51.212;5.952;2023-06-14T11:34:50;6.00;;;1.60;;
72590;SDS011;60625;51.212;5.952;2023-06-14T11:39:51;6.70;;;2.40;;
72590;SDS011;60625;51.212;5.952;2023-06-14T11:44:53;4.40;;;2.10;;
72590;SDS011;60625;51.212;5.952;2023-06-14T11:49:54;5.40;;;2.10;;
72590;SDS011;60625;51.212;5.952;2023-06-14T11:54:56;5.90;;;2.40;;
72590;SDS011;60625;51.212;5.952;2023-06-14T11:59:57;8.90;;;2.40;;
72590;SDS011;60625;51.212;5.952;2023-06-14T12:05:04;5.00;;;2.50;;
72590;SDS011;60625;51.212;5.952;2023-06-14T12:10:13;7.80;;;2.50;;
72590;SDS011;60625;51.212;5.952;2023-06-14T12:15:16;4.00;;;2.00;;
72590;SDS011;60625;51.212;5.952;2023-06-14T12:20:17;5.00;;;1.90;;
72590;SDS011;60625;51.212;5.952;2023-06-14T12:25:35;6.60;;;1.70;;
72590;SDS011;60625;51.212;5.952;2023-06-14T12:30:40;5.00;;;1.90;;
72590;SDS011;60625;51.212;5.952;2023-06-14T12:35:41;5.10;;;2.10;;
72590;SDS011;60625;51.212;5.952;2023-06-14T12:40:42;3.70;;;1.80;;
72590;SDS011;60625;51.212;5.952;2023-06-14T12:45:42;4.80;;;1.60;;
72590;SDS011;60625;51.212;5.952;2023-06-14T12:50:43;7.80;;;2.00;;
72590;SDS011;60625;51.212;5.952;2023-06-14T12:55:44;4.40;;;1.70;;
72590;SDS011;60625;51.212;5.952;2023-06-14T13:00:46;3.60;;;2.00;;
72590;SDS011;60625;51.212;5.952;2023-06-14T13:05:48;4.50;;;1.50;;
72590;SDS011;60625;51.212;5.952;2023-06-14T13:10:49;4.60;;;1.50;;
72590;SDS011;60625;51.212;5.952;2023-06-14T13:15:50;8.60;;;1.50;;
72590;SDS011;60625;51.212;5.952;2023-06-14T13:20:51;3.50;;;1.40;;
72590;SDS011;60625;51.212;5.952;2023-06-14T13:25:53;3.50;;;1.60;;
72590;SDS011;60625;51.212;5.952;2023-06-14T13:30:53;4.80;;;1.60;;
72590;SDS011;60625;51.212;5.952;2023-06-14T13:35:56;4.40;;;1.70;;
72590;SDS011;60625;51.212;5.952;2023-06-14T13:40:57;5.40;;;1.50;;
72590;SDS011;60625;51.212;5.952;2023-06-14T13:45:57;7.50;;;2.00;;
72590;SDS011;60625;51.212;5.952;2023-06-14T13:51:00;8.40;;;2.00;;
72590;SDS011;60625;51.212;5.952;2023-06-14T13:56:01;3.90;;;1.80;;
72590;SDS011;60625;51.212;5.952;2023-06-14T14:01:01;8.20;;;1.70;;
72590;SDS011;60625;51.212;5.952;2023-06-14T14:06:03;6.10;;;1.80;;
72590;SDS011;60625;51.212;5.952;2023-06-14T14:11:06;3.70;;;2.10;;
72590;SDS011;60625;51.212;5.952;2023-06-14T14:16:08;7.20;;;2.00;;
72590;SDS011;60625;51.212;5.952;2023-06-14T14:21:08;6.00;;;1.80;;
72590;SDS011;60625;51.212;5.952;2023-06-14T14:26:09;9.20;;;1.60;;
72590;SDS011;60625;51.212;5.952;2023-06-14T14:31:10;4.30;;;1.70;;
72590;SDS011;60625;51.212;5.952;2023-06-14T14:36:11;5.60;;;2.20;;
72590;SDS011;60625;51.212;5.952;2023-06-14T14:41:11;6.50;;;1.80;;
72590;SDS011;60625;51.212;5.952;2023-06-14T14:46:12;4.20;;;1.80;;
72590;SDS011;60625;51.212;5.952;2023-06-14T14:51:12;3.50;;;1.50;;
72590;SDS011;60625;51.212;5.952;2023-06-14T14:56:13;6.00;;;2.20;;
72590;SDS011;60625;51.212;5.952;2023-06-14T15:01:13;6.00;;;2.00;;
72590;SDS011;60625;51.212;5.952;2023-06-14T15:06:14;6.20;;;1.80;;
72590;SDS011;60625;51.212;5.952;2023-06-14T15:11:17;6.90;;;1.40;;
72590;SDS011;60625;51.212;5.952;2023-06-14T15:16:18;6.50;;;2.00;;
72590;SDS011;60625;51.212;5.952;2023-06-14T15:21:19;4.70;;;1.40;;
72590;SDS011;60625;51.212;5.952;2023-06-14T15:26:20;6.60;;;2.00;;
72590;SDS011;60625;51.212;5.952;2023-06-14T15:31:21;4.10;;;2.20;;
72590;SDS011;60625;51.212;5.952;2023-06-14T15:36:24;5.90;;;2.10;;
72590;SDS011;60625;51.212;5.952;2023-06-14T15:41:25;4.40;;;2.00;;
72590;SDS011;60625;51.212;5.952;2023-06-14T15:46:25;3.70;;;2.00;;
72590;SDS011;60625;51.212;5.952;2023-06-14T15:51:26;4.00;;;2.00;;
72590;SDS011;60625;51.212;5.952;2023-06-14T15:56:26;4.40;;;2.20;;
72590;SDS011;60625;51.212;5.952;2023-06-14T16:01:27;7.10;;;1.50;;
72590;SDS011;60625;51.212;5.952;2023-06-14T16:06:28;6.00;;;2.20;;
72590;SDS011;60625;51.212;5.952;2023-06-14T16:11:28;4.20;;;2.20;;
72590;SDS011;60625;51.212;5.952;2023-06-14T16:16:29;4.60;;;2.20;;
72590;SDS011;60625;51.212;5.952;2023-06-14T16:21:29;3.90;;;2.20;;
72590;SDS011;60625;51.212;5.952;2023-06-14T16:26:34;4.70;;;2.20;;
72590;SDS011;60625;51.212;5.952;2023-06-14T16:31:35;4.50;;;2.00;;
72590;SDS011;60625;51.212;5.952;2023-06-14T16:36:37;8.90;;;2.60;;
72590;SDS011;60625;51.212;5.952;2023-06-14T16:41:38;8.30;;;2.70;;
72590;SDS011;60625;51.212;5.952;2023-06-14T16:46:41;4.70;;;2.20;;
72590;SDS011;60625;51.212;5.952;2023-06-14T16:51:42;6.20;;;2.00;;
72590;SDS011;60625;51.212;5.952;2023-06-14T16:56:43;7.20;;;2.40;;
72590;SDS011;60625;51.212;5.952;2023-06-14T17:01:43;6.10;;;2.30;;
72590;SDS011;60625;51.212;5.952;2023-06-14T17:06:44;6.10;;;2.50;;
72590;SDS011;60625;51.212;5.952;2023-06-14T17:11:45;5.40;;;2.80;;
72590;SDS011;60625;51.212;5.952;2023-06-14T17:16:45;6.00;;;2.00;;
72590;SDS011;60625;51.212;5.952;2023-06-14T17:21:46;3.90;;;2.10;;
72590;SDS011;60625;51.212;5.952;2023-06-14T17:26:49;5.90;;;2.60;;
72590;SDS011;60625;51.212;5.952;2023-06-14T17:31:50;4.50;;;2.10;;
72590;SDS011;60625;51.212;5.952;2023-06-14T17:36:51;5.30;;;2.50;;
72590;SDS011;60625;51.212;5.952;2023-06-14T17:41:51;8.30;;;2.50;;
72590;SDS011;60625;51.212;5.952;2023-06-14T17:46:52;8.00;;;2.50;;
72590;SDS011;60625;51.212;5.952;2023-06-14T17:51:52;10.20;;;2.70;;
72590;SDS011;60625;51.212;5.952;2023-06-14T17:56:53;7.40;;;2.70;;
72590;SDS011;60625;51.212;5.952;2023-06-14T18:01:53;6.00;;;2.80;;
72590;SDS011;60625;51.212;5.952;2023-06-14T18:06:54;6.40;;;2.70;;
72590;SDS011;60625;51.212;5.952;2023-06-14T18:11:55;6.50;;;2.70;;
72590;SDS011;60625;51.212;5.952;2023-06-14T18:16:58;6.20;;;2.70;;
72590;SDS011;60625;51.212;5.952;2023-06-14T18:21:59;6.00;;;2.80;;
72590;SDS011;60625;51.212;5.952;2023-06-14T18:26:59;6.70;;;3.20;;
72590;SDS011;60625;51.212;5.952;2023-06-14T18:32:02;11.80;;;2.90;;
72590;SDS011;60625;51.212;5.952;2023-06-14T18:37:03;7.60;;;3.00;;
72590;SDS011;60625;51.212;5.952;2023-06-14T18:42:05;7.30;;;3.00;;
72590;SDS011;60625;51.212;5.952;2023-06-14T18:47:07;6.30;;;2.80;;
72590;SDS011;60625;51.212;5.952;2023-06-14T18:52:08;5.70;;;2.90;;
72590;SDS011;60625;51.212;5.952;2023-06-14T18:57:10;8.00;;;2.80;;
72590;SDS011;60625;51.212;5.952;2023-06-14T19:02:11;10.20;;;2.60;;
72590;SDS011;60625;51.212;5.952;2023-06-14T19:07:12;4.90;;;2.70;;
72590;SDS011;60625;51.212;5.952;2023-06-14T19:12:18;5.80;;;2.90;;
72590;SDS011;60625;51.212;5.952;2023-06-14T19:17:19;13.10;;;2.70;;
72590;SDS011;60625;51.212;5.952;2023-06-14T19:22:19;8.40;;;2.50;;
72590;SDS011;60625;51.212;5.952;2023-06-14T19:27:20;19.40;;;2.90;;
72590;SDS011;60625;51.212;5.952;2023-06-14T19:32:20;11.40;;;2.40;;
72590;SDS011;60625;51.212;5.952;2023-06-14T19:37:21;6.90;;;2.40;;
72590;SDS011;60625;51.212;5.952;2023-06-14T19:42:22;7.90;;;2.40;;
72590;SDS011;60625;51.212;5.952;2023-06-14T19:47:24;7.60;;;2.40;;
72590;SDS011;60625;51.212;5.952;2023-06-14T19:52:24;9.80;;;2.70;;
72590;SDS011;60625;51.212;5.952;2023-06-14T19:57:25;5.70;;;2.80;;
72590;SDS011;60625;51.212;5.952;2023-06-14T20:02:25;6.90;;;3.30;;
72590;SDS011;60625;51.212;5.952;2023-06-14T20:07:26;6.60;;;3.00;;
72590;SDS011;60625;51.212;5.952;2023-06-14T20:12:27;5.80;;;2.50;;
72590;SDS011;60625;51.212;5.952;2023-06-14T20:17:27;7.50;;;2.60;;
72590;SDS011;60625;51.212;5.952;2023-06-14T20:22:28;6.60;;;2.50;;
72590;SDS011;60625;51.212;5.952;2023-06-14T20:27:30;5.10;;;2.90;;
72590;SDS011;60625;51.212;5.952;2023-06-14T20:32:41;6.80;;;2.70;;
72590;SDS011;60625;51.212;5.952;2023-06-14T20:37:41;5.80;;;2.90;;
72590;SDS011;60625;51.212;5.952;2023-06-14T20:42:42;6.50;;;2.60;;
72590;SDS011;60625;51.212;5.952;2023-06-14T20:47:45;21.00;;;3.00;;
72590;SDS011;60625;51.212;5.952;2023-06-14T20:52:45;7.40;;;2.70;;
72590;SDS011;60625;51.212;5.952;2023-06-14T20:57:47;5.80;;;2.70;;
72590;SDS011;60625;51.212;5.952;2023-06-14T21:02:47;9.50;;;2.50;;
72590;SDS011;60625;51.212;5.952;2023-06-14T21:07:48;6.80;;;2.70;;
72590;SDS011;60625;51.212;5.952;2023-06-14T21:12:48;7.50;;;3.00;;
72590;SDS011;60625;51.212;5.952;2023-06-14T21:17:49;7.50;;;2.60;;
72590;SDS011;60625;51.212;5.952;2023-06-14T21:22:49;5.60;;;2.60;;
72590;SDS011;60625;51.212;5.952;2023-06-14T21:27:50;9.80;;;2.70;;
72590;SDS011;60625;51.212;5.952;2023-06-14T21:32:50;10.50;;;2.90;;
72590;SDS011;60625;51.212;5.952;2023-06-14T21:37:51;6.20;;;2.70;;
72590;SDS011;60625;51.212;5.952;2023-06-14T21:42:52;6.40;;;2.70;;
72590;SDS011;60625;51.212;5.952;2023-06-14T21:47:53;7.20;;;2.70;;
72590;SDS011;60625;51.212;5.952;2023-06-14T21:52:53;5.50;;;3.00;;
72590;SDS011;60625;51.212;5.952;2023-06-14T21:57:54;8.40;;;2.50;;
72590;SDS011;60625;51.212;5.952;2023-06-14T22:02:54;6.50;;;2.90;;
72590;SDS011;60625;51.212;5.952;2023-06-14T22:07:55;10.10;;;3.10;;
72590;SDS011;60625;51.212;5.952;2023-06-14T22:12:56;7.20;;;2.60;;
72590;SDS011;60625;51.212;5.952;2023-06-14T22:17:59;10.50;;;2.90;;
72590;SDS011;60625;51.212;5.952;2023-06-14T22:23:00;8.50;;;2.70;;
72590;SDS011;60625;51.212;5.952;2023-06-14T22:28:01;5.30;;;2.60;;
72590;SDS011;60625;51.212;5.952;2023-06-14T22:33:03;4.80;;;2.50;;
72590;SDS011;60625;51.212;5.952;2023-06-14T22:38:04;5.20;;;2.60;;
72590;SDS011;60625;51.212;5.952;2023-06-14T22:43:04;6.80;;;3.10;;
72590;SDS011;60625;51.212;5.952;2023-06-14T22:48:05;7.30;;;2.90;;
72590;SDS011;60625;51.212;5.952;2023-06-14T22:53:05;6.80;;;2.90;;
72590;SDS011;60625;51.212;5.952;2023-06-14T22:58:08;5.50;;;3.00;;
72590;SDS011;60625;51.212;5.952;2023-06-14T23:03:09;6.20;;;3.00;;
72590;SDS011;60625;51.212;5.952;2023-06-14T23:08:10;8.20;;;2.60;;
72590;SDS011;60625;51.212;5.952;2023-06-14T23:13:11;4.90;;;2.60;;
72590;SDS011;60625;51.212;5.952;2023-06-14T23:18:11;5.80;;;3.00;;
72590;SDS011;60625;51.212;5.952;2023-06-14T23:23:11;7.90;;;3.00;;
72590;SDS011;60625;51.212;5.952;2023-06-14T23:28:12;6.50;;;3.00;;
72590;SDS011;60625;51.212;5.952;2023-06-14T23:33:17;6.60;;;3.00;;
72590;SDS011;60625;51.212;5.952;2023-06-14T23:38:18;7.50;;;2.80;;
72590;SDS011;60625;51.212;5.952;2023-06-14T23:43:20;6.60;;;2.80;;
72590;SDS011;60625;51.212;5.952;2023-06-14T23:48:22;4.90;;;2.70;;
72590;SDS011;60625;51.212;5.952;2023-06-14T23:53:25;8.20;;;2.90;;
72590;SDS011;60625;51.212;5.952;2023-06-14T23:58:27;10.00;;;2.90;;
